createdAt,value
2023-05-13T00:00:59.177Z,69.17
2023-05-13T00:03:25.878Z,69.22
2023-05-13T00:05:52.748Z,70.36
2023-05-13T00:08:20.167Z,70.66
2023-05-13T00:10:46.754Z,71.29
2023-05-13T00:13:13.392Z,71.20
2023-05-13T00:15:40.777Z,71.70
2023-05-13T00:18:07.633Z,71.08
2023-05-13T00:20:35.290Z,70.62
2023-05-13T00:23:03.376Z,71.46
2023-05-13T00:25:30.184Z,71.18
2023-05-13T00:27:56.795Z,71.23
2023-05-13T00:30:23.624Z,72.56
2023-05-13T00:32:50.392Z,72.51
2023-05-13T00:35:17.076Z,73.85
2023-05-13T00:37:44.021Z,73.60
2023-05-13T00:40:20.150Z,72.67
2023-05-13T00:42:47.365Z,72.48
2023-05-13T00:45:14.156Z,71.66
2023-05-13T00:47:41.831Z,72.48
2023-05-13T00:50:10.721Z,74.47
2023-05-13T00:52:42.019Z,74.60
2023-05-13T00:55:10.173Z,73.99
2023-05-13T00:57:38.341Z,73.68
2023-05-13T01:00:08.649Z,73.36
2023-05-13T01:02:53.516Z,73.26
2023-05-13T01:05:33.702Z,73.67
2023-05-13T01:08:26.895Z,73.94
2023-05-13T01:11:16.112Z,75.02
2023-05-13T01:13:46.993Z,74.50
2023-05-13T01:16:18.093Z,76.01
2023-05-13T01:18:49.601Z,75.52
2023-05-13T01:21:16.323Z,76.54
2023-05-13T01:23:42.895Z,76.40
2023-05-13T01:26:09.501Z,76.84
2023-05-13T01:28:36.436Z,76.54
2023-05-13T01:31:03.372Z,76.94
2023-05-13T01:33:30.877Z,76.85
2023-05-13T01:35:57.721Z,76.45
2023-05-13T01:38:25.931Z,76.76
2023-05-13T01:40:53.162Z,76.74
2023-05-13T01:43:20.057Z,76.60
2023-05-13T01:45:46.660Z,77.55
2023-05-13T01:48:13.292Z,77.17
2023-05-13T01:50:40.047Z,78.08
2023-05-13T01:53:06.908Z,77.67
2023-05-13T01:55:33.671Z,78.03
2023-05-13T01:58:00.448Z,77.78
2023-05-13T02:00:27.183Z,77.34
2023-05-13T02:02:53.786Z,77.93
2023-05-13T02:05:20.515Z,78.25
2023-05-13T02:07:47.001Z,77.54
2023-05-13T02:10:13.746Z,77.95
2023-05-13T02:12:40.368Z,78.74
2023-05-13T02:15:07.340Z,79.16
2023-05-13T02:17:34.388Z,78.46
2023-05-13T02:20:01.084Z,78.34
2023-05-13T02:22:27.856Z,78.14
2023-05-13T02:24:54.488Z,78.32
2023-05-13T02:27:21.223Z,78.30
2023-05-13T02:29:47.980Z,78.25
2023-05-13T02:32:14.771Z,78.79
2023-05-13T02:34:42.492Z,79.19
2023-05-13T02:37:09.169Z,79.91
2023-05-13T02:39:36.208Z,79.94
2023-05-13T02:42:03.294Z,80.05
2023-05-13T02:44:30.030Z,79.71
2023-05-13T02:46:56.598Z,79.45
2023-05-13T02:49:23.231Z,79.44
2023-05-13T02:51:50.383Z,79.49
2023-05-13T02:54:16.991Z,79.27
2023-05-13T02:56:43.596Z,79.67
2023-05-13T02:59:10.196Z,79.99
2023-05-13T03:01:36.874Z,80.12
2023-05-13T03:04:03.707Z,80.53
2023-05-13T03:06:31.718Z,80.27
2023-05-13T03:08:58.306Z,80.35
2023-05-13T03:11:25.132Z,80.32
2023-05-13T03:13:51.766Z,80.48
2023-05-13T03:16:18.493Z,80.33
2023-05-13T03:18:45.167Z,81.22
2023-05-13T03:21:11.921Z,80.75
2023-05-13T03:23:38.676Z,80.85
2023-05-13T03:26:05.415Z,81.13
2023-05-13T03:28:31.969Z,81.47
2023-05-13T03:30:58.668Z,81.95
2023-05-13T03:33:25.254Z,81.63
2023-05-13T03:35:51.823Z,82.42
2023-05-13T03:38:18.446Z,81.92
2023-05-13T03:40:45.163Z,81.41
2023-05-13T03:43:11.837Z,81.46
2023-05-13T03:45:38.360Z,81.59
2023-05-13T03:48:05.250Z,81.92
2023-05-13T03:50:31.851Z,82.00
2023-05-13T03:52:58.474Z,81.98
2023-05-13T03:55:25.157Z,81.62
2023-05-13T03:57:51.827Z,81.94
2023-05-13T04:00:18.603Z,82.16
2023-05-13T04:02:45.539Z,82.61
2023-05-13T04:05:13.878Z,82.25
2023-05-13T04:07:41.114Z,82.37
2023-05-13T04:10:08.224Z,81.93
2023-05-13T04:12:34.909Z,81.84
2023-05-13T04:15:01.517Z,82.32
2023-05-13T04:17:28.911Z,82.07
2023-05-13T04:19:56.089Z,82.35
2023-05-13T04:22:24.596Z,82.75
2023-05-13T04:24:56.446Z,82.53
2023-05-13T04:27:24.131Z,82.97
2023-05-13T04:29:51.003Z,82.77
2023-05-13T04:32:22.026Z,82.59
2023-05-13T04:34:49.474Z,82.32
2023-05-13T04:37:16.396Z,82.18
2023-05-13T04:39:46.727Z,82.28
2023-05-13T04:42:15.039Z,82.45
2023-05-13T04:44:41.750Z,82.41
2023-05-13T04:47:08.353Z,82.11
2023-05-13T04:49:35.271Z,82.45
2023-05-13T04:52:04.264Z,82.69
2023-05-13T04:54:35.469Z,82.93
2023-05-13T04:57:05.996Z,82.13
2023-05-13T04:59:34.055Z,82.60
2023-05-13T05:02:01.539Z,82.78
2023-05-13T05:04:29.342Z,82.24
2023-05-13T05:06:56.070Z,82.09
2023-05-13T05:09:22.749Z,81.96
2023-05-13T05:11:50.657Z,81.35
2023-05-13T05:14:17.865Z,81.13
2023-05-13T05:16:44.388Z,79.69
2023-05-13T05:19:11.048Z,77.51
2023-05-13T05:21:37.743Z,75.67
2023-05-13T05:24:06.685Z,73.44
2023-05-13T05:26:33.540Z,72.26
2023-05-13T05:29:00.197Z,70.49
2023-05-13T05:31:27.662Z,68.20
2023-05-13T05:33:55.172Z,66.37
2023-05-13T05:36:22.185Z,63.68
2023-05-13T05:38:48.821Z,62.84
2023-05-13T05:41:15.470Z,62.29
2023-05-13T05:43:43.279Z,60.41
2023-05-13T05:46:09.967Z,58.92
2023-05-13T05:48:37.808Z,59.13
2023-05-13T05:51:05.093Z,57.18
2023-05-13T05:53:32.104Z,55.91
2023-05-13T05:55:59.776Z,55.17
2023-05-13T05:58:27.370Z,53.99
2023-05-13T06:00:58.408Z,53.21
2023-05-13T06:03:25.326Z,51.29
2023-05-13T06:05:52.452Z,50.44
2023-05-13T06:08:19.018Z,50.59
2023-05-13T06:10:45.644Z,49.32
2023-05-13T06:13:12.266Z,48.83
2023-05-13T06:15:40.022Z,48.95
2023-05-13T06:18:06.748Z,47.59
2023-05-13T06:20:36.148Z,48.16
2023-05-13T06:23:02.759Z,46.28
2023-05-13T06:25:29.859Z,45.37
2023-05-13T06:27:56.492Z,45.55
2023-05-13T06:30:24.250Z,45.37
2023-05-13T06:33:00.784Z,44.48
2023-05-13T06:35:29.100Z,43.36
2023-05-13T06:37:55.931Z,43.68
2023-05-13T06:40:22.747Z,44.11
2023-05-13T06:42:49.675Z,41.37
2023-05-13T06:45:16.497Z,40.44
2023-05-13T06:47:43.072Z,41.69
2023-05-13T06:50:10.313Z,40.33
2023-05-13T06:52:36.814Z,40.56
2023-05-13T06:55:04.755Z,40.44
2023-05-13T06:57:41.745Z,40.39
2023-05-13T07:00:09.682Z,40.66
2023-05-13T07:02:36.439Z,40.47
2023-05-13T07:05:05.090Z,40.72
2023-05-13T07:07:31.694Z,40.92
2023-05-13T07:09:58.355Z,41.07
2023-05-13T07:12:25.073Z,39.80
2023-05-13T07:14:51.878Z,39.27
2023-05-13T07:17:19.613Z,39.03
2023-05-13T07:19:46.483Z,39.04
2023-05-13T07:22:13.206Z,38.69
2023-05-13T07:24:41.111Z,38.59
2023-05-13T07:27:08.181Z,38.16
2023-05-13T07:29:36.180Z,37.21
2023-05-13T07:32:06.632Z,37.62
2023-05-13T07:34:33.890Z,37.29
2023-05-13T07:37:01.018Z,39.50
2023-05-13T07:39:28.099Z,37.42
2023-05-13T07:41:55.082Z,36.81
2023-05-13T07:44:23.614Z,37.09
2023-05-13T07:46:53.559Z,38.24
2023-05-13T07:49:21.786Z,37.37
2023-05-13T07:51:48.575Z,37.27
2023-05-13T07:54:15.463Z,38.03
2023-05-13T07:56:44.481Z,37.58
2023-05-13T07:59:11.146Z,35.98
2023-05-13T08:01:38.013Z,35.76
2023-05-13T08:04:05.204Z,36.60
2023-05-13T08:06:32.798Z,37.37
2023-05-13T08:09:02.679Z,36.68
2023-05-13T08:11:29.744Z,37.05
2023-05-13T08:13:56.377Z,37.05
2023-05-13T08:16:24.024Z,36.92
2023-05-13T08:18:50.777Z,36.07
2023-05-13T08:21:17.463Z,36.25
2023-05-13T08:23:45.808Z,36.83
2023-05-13T08:26:13.896Z,36.70
2023-05-13T08:28:42.340Z,34.95
2023-05-13T08:31:11.678Z,34.93
2023-05-13T08:33:38.343Z,35.10
2023-05-13T08:36:05.475Z,34.96
2023-05-13T08:38:33.640Z,34.45
2023-05-13T08:41:00.365Z,34.35
2023-05-13T08:43:27.941Z,33.88
2023-05-13T08:45:56.630Z,33.47
2023-05-13T08:48:24.475Z,33.92
2023-05-13T08:50:51.197Z,34.55
2023-05-13T08:53:18.871Z,32.47
2023-05-13T08:55:45.751Z,32.20
2023-05-13T08:58:12.647Z,33.43
2023-05-13T09:00:39.773Z,32.68
2023-05-13T09:03:07.414Z,30.70
2023-05-13T09:05:38.821Z,29.77
2023-05-13T09:08:11.206Z,30.66
2023-05-13T09:10:38.490Z,30.20
2023-05-13T09:13:06.117Z,29.91
2023-05-13T09:15:33.517Z,29.67
2023-05-13T09:18:03.679Z,29.03
2023-05-13T09:20:31.304Z,29.73
2023-05-13T09:23:01.096Z,29.89
2023-05-13T09:25:28.809Z,30.16
2023-05-13T09:27:59.423Z,29.12
2023-05-13T09:30:30.974Z,28.61
2023-05-13T09:33:12.765Z,28.99
2023-05-13T09:35:50.646Z,27.54
2023-05-13T09:38:29.140Z,27.22
2023-05-13T09:40:57.966Z,28.18
2023-05-13T09:43:31.641Z,27.59
2023-05-13T09:46:03.553Z,27.72
2023-05-13T09:48:34.345Z,27.49
2023-05-13T09:51:01.105Z,26.82
2023-05-13T09:53:28.631Z,26.45
2023-05-13T09:55:56.887Z,26.75
2023-05-13T09:58:28.027Z,25.55
2023-05-13T10:00:55.174Z,26.64
2023-05-13T10:03:21.801Z,26.52
2023-05-13T10:05:50.125Z,26.56
2023-05-13T10:08:18.315Z,26.65
2023-05-13T10:10:49.618Z,25.96
2023-05-13T10:13:18.162Z,25.22
2023-05-13T10:15:52.954Z,24.90
2023-05-13T10:18:21.060Z,25.62
2023-05-13T10:20:52.927Z,24.41
2023-05-13T10:23:20.594Z,25.38
2023-05-13T10:25:54.430Z,25.13
2023-05-13T10:28:21.478Z,23.38
2023-05-13T10:30:54.233Z,24.68
2023-05-13T10:33:21.384Z,25.10
2023-05-13T10:35:57.766Z,23.72
2023-05-13T10:39:05.770Z,24.78
2023-05-13T10:41:57.015Z,24.39
2023-05-13T10:44:24.290Z,23.73
2023-05-13T10:46:51.023Z,23.60
2023-05-13T10:49:17.618Z,23.64
2023-05-13T10:51:49.425Z,22.43
2023-05-13T10:54:24.879Z,23.77
2023-05-13T10:56:59.221Z,22.49
2023-05-13T10:59:30.430Z,23.29
2023-05-13T11:02:01.612Z,23.68
2023-05-13T11:04:28.330Z,23.08
2023-05-13T11:06:55.009Z,22.91
2023-05-13T11:09:28.962Z,23.09
2023-05-13T11:11:59.304Z,21.93
2023-05-13T11:14:27.993Z,22.29
2023-05-13T11:17:09.418Z,22.87
2023-05-13T11:19:38.841Z,21.50
2023-05-13T11:22:18.320Z,22.03
2023-05-13T11:24:46.601Z,21.77
2023-05-13T11:27:15.611Z,21.44
2023-05-13T11:29:56.425Z,21.17
2023-05-13T11:32:54.152Z,20.39
2023-05-13T11:35:27.622Z,20.71
2023-05-13T11:37:59.011Z,21.26
2023-05-13T11:40:27.830Z,21.02
2023-05-13T11:42:55.125Z,20.67
2023-05-13T11:45:24.187Z,21.77
2023-05-13T11:47:51.250Z,22.82
2023-05-13T11:50:22.301Z,22.19
2023-05-13T11:52:59.735Z,23.75
2023-05-13T11:55:36.170Z,21.93
2023-05-13T11:58:03.768Z,21.56
2023-05-13T12:00:35.135Z,22.30
2023-05-13T12:03:10.449Z,22.40
2023-05-13T12:05:37.987Z,21.64
2023-05-13T12:08:10.057Z,21.25
2023-05-13T12:10:43.592Z,22.66
2023-05-13T12:13:11.558Z,21.88
2023-05-13T12:15:38.823Z,21.58
2023-05-13T12:18:06.569Z,22.37
2023-05-13T12:20:33.721Z,22.22
2023-05-13T12:23:00.934Z,21.90
2023-05-13T12:25:48.010Z,21.48
2023-05-13T12:28:21.233Z,21.46
2023-05-13T12:31:00.072Z,23.11
2023-05-13T12:33:31.877Z,22.91
2023-05-13T12:36:26.189Z,23.27
2023-05-13T12:39:01.307Z,23.44
2023-05-13T12:41:32.103Z,23.42
2023-05-13T12:44:00.440Z,23.66
2023-05-13T12:46:28.129Z,23.97
2023-05-13T12:49:03.606Z,25.21
2023-05-13T12:51:31.109Z,23.80
2023-05-13T12:53:58.388Z,23.84
2023-05-13T12:56:26.051Z,22.56
2023-05-13T12:58:54.664Z,22.67
2023-05-13T13:01:22.364Z,22.71
2023-05-13T13:03:49.266Z,21.85
2023-05-13T13:06:16.628Z,21.89
2023-05-13T13:08:43.309Z,22.10
2023-05-13T13:11:10.494Z,21.43
2023-05-13T13:13:39.145Z,21.64
2023-05-13T13:16:09.400Z,21.48
2023-05-13T13:18:36.300Z,21.56
2023-05-13T13:21:03.300Z,19.30
2023-05-13T13:23:30.052Z,20.34
2023-05-13T13:25:59.230Z,19.87
2023-05-13T13:28:26.671Z,20.13
2023-05-13T13:30:53.925Z,20.29
2023-05-13T13:33:21.193Z,20.81
2023-05-13T13:35:48.330Z,21.59
2023-05-13T13:38:15.201Z,21.60
2023-05-13T13:40:41.728Z,21.44
2023-05-13T13:43:09.279Z,21.62
2023-05-13T13:45:36.456Z,21.21
2023-05-13T13:48:03.481Z,20.51
2023-05-13T13:50:30.180Z,20.24
2023-05-13T13:52:56.778Z,20.38
2023-05-13T13:55:24.305Z,19.95
2023-05-13T13:57:51.955Z,20.55
2023-05-13T14:00:19.453Z,20.32
2023-05-13T14:02:46.385Z,20.58
2023-05-13T14:05:13.610Z,20.87
2023-05-13T14:07:40.704Z,20.09
2023-05-13T14:10:08.042Z,19.98
2023-05-13T14:12:36.463Z,19.74
2023-05-13T14:15:03.468Z,20.23
2023-05-13T14:17:30.278Z,20.09
2023-05-13T14:19:57.046Z,19.83
2023-05-13T14:22:24.462Z,20.08
2023-05-13T14:24:52.494Z,19.90
2023-05-13T14:27:19.657Z,19.12
2023-05-13T14:29:47.794Z,19.43
2023-05-13T14:32:14.662Z,19.22
2023-05-13T14:34:41.601Z,20.10
2023-05-13T14:37:08.853Z,21.11
2023-05-13T14:39:35.560Z,21.50
2023-05-13T14:42:11.546Z,20.98
2023-05-13T14:44:38.372Z,20.55
2023-05-13T14:47:05.074Z,20.77
2023-05-13T14:49:32.836Z,21.42
2023-05-13T14:51:59.971Z,22.12
2023-05-13T14:54:26.958Z,22.27
2023-05-13T14:56:53.675Z,22.19
2023-05-13T14:59:20.350Z,21.81
2023-05-13T15:01:47.082Z,21.92
2023-05-13T15:04:13.851Z,21.75
2023-05-13T15:06:40.737Z,22.22
2023-05-13T15:09:07.335Z,22.72
2023-05-13T15:11:34.405Z,22.43
2023-05-13T15:14:02.179Z,22.08
2023-05-13T15:16:29.835Z,22.10
2023-05-13T15:18:56.543Z,22.60
2023-05-13T15:21:23.330Z,22.08
2023-05-13T15:23:50.191Z,21.60
2023-05-13T15:26:16.881Z,21.33
2023-05-13T15:28:43.530Z,22.04
2023-05-13T15:31:10.367Z,21.45
2023-05-13T15:33:37.050Z,21.24
2023-05-13T15:36:05.722Z,21.14
2023-05-13T15:38:32.544Z,20.84
2023-05-13T15:40:59.176Z,21.33
2023-05-13T15:43:25.808Z,21.86
2023-05-13T15:45:53.521Z,21.57
2023-05-13T15:48:20.408Z,22.40
2023-05-13T15:50:47.024Z,23.22
2023-05-13T15:53:13.617Z,24.22
2023-05-13T15:55:40.268Z,24.94
2023-05-13T15:58:07.150Z,24.94
2023-05-13T16:00:34.279Z,25.31
2023-05-13T16:03:01.175Z,26.07
2023-05-13T16:05:28.179Z,26.76
2023-05-13T16:07:56.134Z,27.18
2023-05-13T16:10:23.263Z,27.76
2023-05-13T16:12:50.178Z,28.01
2023-05-13T16:15:16.792Z,28.43
2023-05-13T16:17:43.525Z,28.38
2023-05-13T16:20:11.694Z,28.58
2023-05-13T16:22:39.143Z,28.80
2023-05-13T16:25:09.876Z,28.75
2023-05-13T16:27:37.630Z,28.83
2023-05-13T16:30:07.488Z,29.36
2023-05-13T16:32:37.795Z,29.68
2023-05-13T16:35:06.160Z,29.69
2023-05-13T16:37:35.177Z,30.34
2023-05-13T16:40:01.879Z,30.88
2023-05-13T16:42:28.502Z,31.14
2023-05-13T16:44:55.084Z,31.20
2023-05-13T16:47:22.005Z,30.77
2023-05-13T16:49:50.004Z,30.54
2023-05-13T16:52:16.767Z,30.25
2023-05-13T16:54:43.377Z,30.84
2023-05-13T16:57:10.198Z,31.63
2023-05-13T16:59:36.862Z,31.67
2023-05-13T17:02:03.587Z,32.00
2023-05-13T17:04:30.408Z,31.98
2023-05-13T17:06:59.063Z,32.32
2023-05-13T17:09:26.337Z,32.64
2023-05-13T17:11:54.393Z,33.33
2023-05-13T17:14:21.525Z,33.81
2023-05-13T17:16:48.350Z,33.95
2023-05-13T17:19:15.422Z,33.88
2023-05-13T17:21:42.161Z,33.87
2023-05-13T17:24:08.897Z,33.77
2023-05-13T17:26:36.935Z,33.38
2023-05-13T17:29:05.232Z,33.03
2023-05-13T17:31:32.211Z,32.27
2023-05-13T17:33:59.246Z,32.14
2023-05-13T17:36:25.870Z,31.48
2023-05-13T17:38:53.523Z,31.53
2023-05-13T17:41:20.218Z,31.65
2023-05-13T17:43:46.895Z,31.69
2023-05-13T17:46:13.501Z,31.84
2023-05-13T17:48:40.314Z,31.91
2023-05-13T17:51:07.073Z,32.03
2023-05-13T17:53:36.753Z,32.04
2023-05-13T17:56:08.278Z,32.31
2023-05-13T17:58:36.237Z,32.52
2023-05-13T18:01:03.844Z,33.01
2023-05-13T18:03:30.618Z,33.43
2023-05-13T18:06:03.381Z,33.56
2023-05-13T18:08:31.221Z,33.85
2023-05-13T18:10:57.846Z,34.19
2023-05-13T18:13:25.450Z,34.49
2023-05-13T18:15:53.142Z,34.63
2023-05-13T18:18:19.830Z,34.73
2023-05-13T18:20:46.443Z,35.24
2023-05-13T18:23:13.158Z,35.32
2023-05-13T18:25:54.591Z,35.85
2023-05-13T18:28:22.176Z,35.87
2023-05-13T18:30:48.748Z,35.80
2023-05-13T18:33:15.592Z,35.95
2023-05-13T18:35:42.306Z,36.02
2023-05-13T18:38:08.875Z,36.28
2023-05-13T18:40:35.516Z,36.64
2023-05-13T18:43:02.914Z,36.89
2023-05-13T18:45:30.150Z,37.17
2023-05-13T18:47:56.861Z,37.39
2023-05-13T18:50:24.998Z,37.79
2023-05-13T18:52:51.638Z,37.92
2023-05-13T18:55:18.532Z,37.98
2023-05-13T18:57:45.171Z,38.12
2023-05-13T19:00:12.260Z,38.41
2023-05-13T19:02:39.359Z,38.61
2023-05-13T19:05:09.247Z,39.03
2023-05-13T19:07:35.873Z,38.89
2023-05-13T19:10:03.682Z,39.15
2023-05-13T19:12:30.271Z,39.29
2023-05-13T19:14:56.836Z,39.25
2023-05-13T19:17:23.427Z,39.78
2023-05-13T19:19:50.026Z,40.02
2023-05-13T19:22:16.737Z,40.64
2023-05-13T19:24:43.429Z,41.11
2023-05-13T19:27:10.324Z,41.25
2023-05-13T19:29:36.997Z,41.49
2023-05-13T19:32:03.772Z,42.39
2023-05-13T19:34:30.352Z,42.81
2023-05-13T19:36:57.003Z,42.74
2023-05-13T19:39:23.686Z,43.03
2023-05-13T19:41:50.330Z,43.75
2023-05-13T19:44:16.930Z,44.11
2023-05-13T19:46:43.639Z,44.75
2023-05-13T19:49:10.304Z,44.57
2023-05-13T19:51:36.983Z,45.16
2023-05-13T19:54:03.779Z,45.25
2023-05-13T19:56:30.568Z,46.48
2023-05-13T19:58:57.152Z,46.36
2023-05-13T20:01:24.881Z,47.17
2023-05-13T20:03:51.703Z,47.77
2023-05-13T20:06:18.414Z,48.11
2023-05-13T20:08:45.979Z,48.28
2023-05-13T20:11:12.997Z,48.36
2023-05-13T20:13:39.728Z,48.75
2023-05-13T20:16:06.439Z,48.63
2023-05-13T20:18:33.875Z,48.55
2023-05-13T20:21:01.451Z,48.59
2023-05-13T20:23:29.124Z,49.31
2023-05-13T20:25:57.328Z,49.20
2023-05-13T20:28:24.460Z,49.21
2023-05-13T20:30:54.513Z,50.22
2023-05-13T20:33:21.202Z,50.34
2023-05-13T20:35:47.823Z,50.67
2023-05-13T20:38:14.472Z,50.48
2023-05-13T20:40:41.425Z,50.78
2023-05-13T20:43:08.085Z,51.02
2023-05-13T20:45:39.291Z,51.40
2023-05-13T20:48:06.737Z,51.56
2023-05-13T20:50:33.555Z,51.87
2023-05-13T20:53:00.333Z,53.27
2023-05-13T20:55:27.211Z,53.50
2023-05-13T20:57:53.898Z,54.10
2023-05-13T21:00:20.919Z,53.60
2023-05-13T21:02:48.811Z,53.23
2023-05-13T21:05:15.821Z,53.51
2023-05-13T21:07:42.367Z,53.97
2023-05-13T21:10:09.275Z,54.13
2023-05-13T21:12:35.892Z,54.93
2023-05-13T21:15:02.507Z,55.39
2023-05-13T21:17:29.206Z,56.08
2023-05-13T21:19:55.873Z,55.71
2023-05-13T21:22:22.565Z,55.18
2023-05-13T21:24:50.210Z,54.86
2023-05-13T21:27:16.848Z,55.71
2023-05-13T21:29:43.449Z,56.71
2023-05-13T21:32:10.085Z,56.35
2023-05-13T21:34:36.721Z,56.69
2023-05-13T21:37:03.565Z,57.38
2023-05-13T21:39:30.227Z,57.67
2023-05-13T21:41:56.945Z,56.94
2023-05-13T21:44:24.868Z,57.23
2023-05-13T21:46:51.496Z,57.87
2023-05-13T21:49:18.116Z,57.76
2023-05-13T21:51:44.728Z,57.52
2023-05-13T21:54:11.427Z,58.21
2023-05-13T21:56:37.993Z,58.54
2023-05-13T21:59:05.622Z,58.39
2023-05-13T22:01:32.233Z,58.57
2023-05-13T22:03:58.804Z,59.88
2023-05-13T22:06:25.392Z,60.27
2023-05-13T22:08:51.915Z,59.90
2023-05-13T22:11:18.600Z,60.16
2023-05-13T22:13:45.181Z,60.83
2023-05-13T22:16:14.202Z,61.47
2023-05-13T22:18:41.580Z,61.37
2023-05-13T22:21:08.386Z,61.68
2023-05-13T22:23:34.934Z,62.47
2023-05-13T22:26:01.643Z,61.54
2023-05-13T22:28:28.304Z,61.36
2023-05-13T22:30:56.948Z,61.58
2023-05-13T22:33:23.652Z,61.89
2023-05-13T22:35:50.344Z,61.80
2023-05-13T22:38:17.007Z,62.58
2023-05-13T22:40:43.599Z,62.14
2023-05-13T22:43:10.112Z,62.96
2023-05-13T22:45:37.589Z,64.43
2023-05-13T22:48:04.402Z,65.03
2023-05-13T22:50:31.065Z,64.43
2023-05-13T22:52:57.703Z,65.09
2023-05-13T22:55:24.274Z,64.77
2023-05-13T22:57:50.905Z,64.09
2023-05-13T23:00:17.717Z,64.09
2023-05-13T23:02:44.317Z,64.08
2023-05-13T23:05:11.145Z,64.95
2023-05-13T23:07:37.669Z,64.90
2023-05-13T23:10:05.260Z,64.58
2023-05-13T23:12:33.487Z,64.56
2023-05-13T23:15:00.213Z,63.97
2023-05-13T23:17:26.879Z,64.68
2023-05-13T23:19:53.568Z,64.29
2023-05-13T23:22:20.156Z,65.97
2023-05-13T23:24:46.811Z,66.29
2023-05-13T23:27:13.540Z,65.67
2023-05-13T23:29:40.232Z,65.41
2023-05-13T23:32:07.383Z,65.77
2023-05-13T23:34:34.197Z,65.45
2023-05-13T23:37:00.779Z,65.77
2023-05-13T23:39:27.426Z,66.33
2023-05-13T23:41:53.969Z,66.91
2023-05-13T23:44:20.677Z,67.06
2023-05-13T23:46:47.343Z,67.49
2023-05-13T23:49:14.119Z,68.05
2023-05-13T23:51:40.778Z,68.10
2023-05-13T23:54:08.303Z,68.00
2023-05-13T23:56:35.177Z,68.76
2023-05-13T23:59:01.854Z,69.07
